createdAt,value
2022-10-15T00:02:26.726Z,25.70
2022-10-15T00:04:55.471Z,24.57
2022-10-15T00:07:24.403Z,25.40
2022-10-15T00:09:53.332Z,25.30
2022-10-15T00:12:21.970Z,27.00
2022-10-15T00:14:50.620Z,24.37
2022-10-15T00:17:20.860Z,27.10
2022-10-15T00:19:49.856Z,25.20
2022-10-15T00:22:18.505Z,27.00
2022-10-15T00:24:47.114Z,24.40
2022-10-15T00:27:15.784Z,23.63
2022-10-15T00:29:44.631Z,26.53
2022-10-15T00:32:13.269Z,24.27
2022-10-15T00:34:43.629Z,25.63
2022-10-15T00:37:12.351Z,25.13
2022-10-15T00:39:40.979Z,25.43
2022-10-15T00:42:11.355Z,24.33
2022-10-15T00:44:54.926Z,23.97
2022-10-15T00:47:30.224Z,24.67
2022-10-15T00:50:06.480Z,26.10
2022-10-15T00:52:41.093Z,24.27
2022-10-15T00:55:14.410Z,28.30
2022-10-15T00:57:45.103Z,28.00
2022-10-15T01:00:16.674Z,25.90
2022-10-15T01:02:46.587Z,24.93
2022-10-15T01:05:18.992Z,23.77
2022-10-15T01:07:47.631Z,23.57
2022-10-15T01:10:16.617Z,22.13
2022-10-15T01:12:58.682Z,23.33
2022-10-15T01:15:30.902Z,20.60
2022-10-15T01:18:04.548Z,23.07
2022-10-15T01:20:58.059Z,24.70
2022-10-15T01:24:14.179Z,24.70
2022-10-15T01:27:02.253Z,23.33
2022-10-15T01:29:47.206Z,25.37
2022-10-15T01:32:22.337Z,24.40
2022-10-15T01:34:57.621Z,26.00
2022-10-15T01:37:36.286Z,24.93
2022-10-15T01:40:12.669Z,26.30
2022-10-15T01:42:47.597Z,23.13
2022-10-15T01:45:22.012Z,25.83
2022-10-15T01:47:55.938Z,25.30
2022-10-15T01:50:27.845Z,25.83
2022-10-15T01:52:58.565Z,27.17
2022-10-15T01:55:28.491Z,24.00
2022-10-15T01:57:59.740Z,25.77
2022-10-15T02:00:28.461Z,26.27
2022-10-15T02:03:02.663Z,25.20
2022-10-15T02:05:34.820Z,26.47
2022-10-15T02:08:12.017Z,27.17
2022-10-15T02:10:47.378Z,28.00
2022-10-15T02:13:25.439Z,28.63
2022-10-15T02:16:03.733Z,26.63
2022-10-15T02:18:41.365Z,26.23
2022-10-15T02:21:14.271Z,26.83
2022-10-15T02:23:48.944Z,26.13
2022-10-15T02:26:18.522Z,26.57
2022-10-15T02:28:52.488Z,28.17
2022-10-15T02:31:23.317Z,26.93
2022-10-15T02:33:56.811Z,27.90
2022-10-15T02:36:25.834Z,28.90
2022-10-15T02:38:57.253Z,30.40
2022-10-15T02:41:26.024Z,31.27
2022-10-15T02:43:54.731Z,28.50
2022-10-15T02:46:23.532Z,30.20
2022-10-15T02:48:53.574Z,29.03
2022-10-15T02:51:22.165Z,30.40
2022-10-15T02:53:50.836Z,27.97
2022-10-15T02:56:19.563Z,28.37
2022-10-15T02:58:48.214Z,27.10
2022-10-15T03:01:17.032Z,27.20
2022-10-15T03:03:45.732Z,29.10
2022-10-15T03:06:16.054Z,28.30
2022-10-15T03:08:44.787Z,27.63
2022-10-15T03:11:13.385Z,29.00
2022-10-15T03:13:42.418Z,27.37
2022-10-15T03:16:15.969Z,27.33
2022-10-15T03:18:44.585Z,28.33
2022-10-15T03:21:14.704Z,27.17
2022-10-15T03:23:43.451Z,27.70
2022-10-15T03:26:12.201Z,27.43
2022-10-15T03:28:40.846Z,28.17
2022-10-15T03:31:09.687Z,25.50
2022-10-15T03:33:38.302Z,27.07
2022-10-15T03:36:08.315Z,25.87
2022-10-15T03:38:38.368Z,25.47
2022-10-15T03:41:07.747Z,28.80
2022-10-15T03:43:38.867Z,24.90
2022-10-15T03:46:10.766Z,26.73
2022-10-15T03:48:40.139Z,27.20
2022-10-15T03:51:08.943Z,26.83
2022-10-15T03:53:39.029Z,26.13
2022-10-15T03:56:08.697Z,27.70
2022-10-15T03:58:37.348Z,28.03
2022-10-15T04:01:11.402Z,27.20
2022-10-15T04:03:40.829Z,26.17
2022-10-15T04:06:09.998Z,26.20
2022-10-15T04:08:40.445Z,24.00
2022-10-15T04:11:09.210Z,27.40
2022-10-15T04:13:37.895Z,25.77
2022-10-15T04:16:07.139Z,25.37
2022-10-15T04:18:35.771Z,27.17
2022-10-15T04:21:04.345Z,27.13
2022-10-15T04:23:32.855Z,25.33
2022-10-15T04:26:03.125Z,27.00
2022-10-15T04:28:31.785Z,27.37
2022-10-15T04:31:01.000Z,29.07
2022-10-15T04:33:30.408Z,26.07
2022-10-15T04:36:03.430Z,29.47
2022-10-15T04:38:32.256Z,27.40
2022-10-15T04:41:04.049Z,28.87
2022-10-15T04:43:32.998Z,31.20
2022-10-15T04:46:02.730Z,30.37
2022-10-15T04:48:32.625Z,31.70
2022-10-15T04:51:05.827Z,31.93
2022-10-15T04:53:34.845Z,30.87
2022-10-15T04:56:07.049Z,31.10
2022-10-15T04:58:36.973Z,27.97
2022-10-15T05:01:07.106Z,31.10
2022-10-15T05:03:38.719Z,30.33
2022-10-15T05:06:11.491Z,30.33
2022-10-15T05:08:42.107Z,28.10
2022-10-15T05:11:14.569Z,29.37
2022-10-15T05:13:43.504Z,29.50
2022-10-15T05:16:14.238Z,30.87
2022-10-15T05:18:44.286Z,29.03
2022-10-15T05:21:13.833Z,27.60
2022-10-15T05:23:44.237Z,30.57
2022-10-15T05:26:15.934Z,28.60
2022-10-15T05:28:44.825Z,29.27
2022-10-15T05:31:18.834Z,29.37
2022-10-15T05:33:48.234Z,28.57
2022-10-15T05:36:18.651Z,26.87
2022-10-15T05:38:47.426Z,27.70
2022-10-15T05:41:17.609Z,28.10
2022-10-15T05:43:48.803Z,27.70
2022-10-15T05:46:18.198Z,28.07
2022-10-15T05:48:50.399Z,27.80
2022-10-15T05:51:19.846Z,27.87
2022-10-15T05:53:49.107Z,28.73
2022-10-15T05:56:19.457Z,28.93
2022-10-15T05:58:48.321Z,31.53
2022-10-15T06:01:17.516Z,30.40
2022-10-15T06:03:46.356Z,28.93
2022-10-15T06:06:17.264Z,29.53
2022-10-15T06:08:46.746Z,29.40
2022-10-15T06:11:15.977Z,27.83
2022-10-15T06:13:46.877Z,30.33
2022-10-15T06:16:19.524Z,29.13
2022-10-15T06:18:52.951Z,29.60
2022-10-15T06:21:22.039Z,32.20
2022-10-15T06:23:50.907Z,31.17
2022-10-15T06:26:19.697Z,28.97
2022-10-15T06:28:50.142Z,28.37
2022-10-15T06:31:19.104Z,30.97
2022-10-15T06:33:48.211Z,27.97
2022-10-15T06:36:17.340Z,29.57
2022-10-15T06:38:48.457Z,28.70
2022-10-15T06:41:18.013Z,28.07
2022-10-15T06:43:47.550Z,28.77
2022-10-15T06:46:18.168Z,27.80
2022-10-15T06:48:47.168Z,28.30
2022-10-15T06:51:16.063Z,26.37
2022-10-15T06:53:45.014Z,28.03
2022-10-15T06:56:13.942Z,26.70
2022-10-15T06:58:44.404Z,26.83
2022-10-15T07:01:13.181Z,25.77
2022-10-15T07:03:44.181Z,28.10
2022-10-15T07:06:13.120Z,26.77
2022-10-15T07:08:41.972Z,27.70
2022-10-15T07:11:11.244Z,27.60
2022-10-15T07:13:40.336Z,26.10
2022-10-15T07:16:11.057Z,25.27
2022-10-15T07:18:40.633Z,26.60
2022-10-15T07:21:11.797Z,26.83
2022-10-15T07:23:41.158Z,27.47
2022-10-15T07:26:09.950Z,25.93
2022-10-15T07:28:38.673Z,27.53
2022-10-15T07:31:09.079Z,28.70
2022-10-15T07:33:37.831Z,26.97
2022-10-15T07:36:08.199Z,27.30
2022-10-15T07:38:38.672Z,27.43
2022-10-15T07:41:08.608Z,26.40
2022-10-15T07:43:37.660Z,29.67
2022-10-15T07:46:07.133Z,26.93
2022-10-15T07:48:35.905Z,27.47
2022-10-15T07:51:07.273Z,29.80
2022-10-15T07:53:37.555Z,26.47
2022-10-15T07:56:08.383Z,27.20
2022-10-15T07:58:38.464Z,28.30
2022-10-15T08:01:08.530Z,29.30
2022-10-15T08:03:37.427Z,26.13
2022-10-15T08:06:09.232Z,28.03
2022-10-15T08:08:39.971Z,26.67
2022-10-15T08:11:10.108Z,28.33
2022-10-15T08:13:41.658Z,26.77
2022-10-15T08:16:11.240Z,27.40
2022-10-15T08:18:40.552Z,26.43
2022-10-15T08:21:10.426Z,27.50
2022-10-15T08:23:40.735Z,28.50
2022-10-15T08:26:10.045Z,26.07
2022-10-15T08:28:39.178Z,27.30
2022-10-15T08:31:08.264Z,26.47
2022-10-15T08:33:37.786Z,27.40
2022-10-15T08:36:08.007Z,27.90
2022-10-15T08:38:37.037Z,25.30
2022-10-15T08:41:22.579Z,26.20
2022-10-15T08:43:51.502Z,27.37
2022-10-15T08:46:25.303Z,27.17
2022-10-15T08:48:57.339Z,29.70
2022-10-15T08:51:29.920Z,28.07
2022-10-15T08:54:01.827Z,27.80
2022-10-15T08:56:36.969Z,28.97
2022-10-15T08:59:18.722Z,28.77
2022-10-15T09:01:53.233Z,29.97
2022-10-15T09:04:32.557Z,31.97
2022-10-15T09:07:08.040Z,31.47
2022-10-15T09:09:46.153Z,30.83
2022-10-15T09:12:42.736Z,31.23
2022-10-15T09:15:16.100Z,31.20
2022-10-15T09:17:47.891Z,29.20
2022-10-15T09:20:19.824Z,31.73
2022-10-15T09:22:52.458Z,31.23
2022-10-15T09:25:24.716Z,31.10
2022-10-15T09:27:58.219Z,30.13
2022-10-15T09:30:36.968Z,31.93
2022-10-15T09:33:10.445Z,29.50
2022-10-15T09:35:43.645Z,29.80
2022-10-15T09:38:29.283Z,31.63
2022-10-15T09:41:16.795Z,30.40
2022-10-15T09:43:51.496Z,26.90
2022-10-15T09:46:20.396Z,28.40
2022-10-15T09:48:54.316Z,27.70
2022-10-15T09:51:29.405Z,27.50
2022-10-15T09:54:04.795Z,28.40
2022-10-15T09:56:38.355Z,24.40
2022-10-15T09:59:09.715Z,25.80
2022-10-15T10:01:38.743Z,24.50
2022-10-15T10:04:18.911Z,22.80
2022-10-15T10:06:50.013Z,22.53
2022-10-15T10:09:21.658Z,19.97
2022-10-15T10:11:53.530Z,21.83
2022-10-15T10:14:29.158Z,22.20
2022-10-15T10:17:17.867Z,20.10
2022-10-15T10:20:02.836Z,18.80
2022-10-15T10:22:31.981Z,18.33
2022-10-15T10:25:00.739Z,19.80
2022-10-15T10:27:31.842Z,20.77
2022-10-15T10:30:04.398Z,17.27
2022-10-15T10:32:35.665Z,20.07
2022-10-15T10:35:06.183Z,19.03
2022-10-15T10:37:44.109Z,16.00
2022-10-15T10:40:26.090Z,16.87
2022-10-15T10:43:13.087Z,17.77
2022-10-15T10:45:55.403Z,18.20
2022-10-15T10:48:27.059Z,18.20
2022-10-15T10:51:14.045Z,18.77
2022-10-15T10:53:51.589Z,18.40
2022-10-15T10:56:24.787Z,17.90
2022-10-15T10:59:01.139Z,17.60
2022-10-15T11:01:31.621Z,19.70
2022-10-15T11:04:00.530Z,19.07
2022-10-15T11:06:52.202Z,19.27
2022-10-15T11:09:33.657Z,20.03
2022-10-15T11:12:15.877Z,20.87
2022-10-15T11:14:51.796Z,20.20
2022-10-15T11:17:31.964Z,21.03
2022-10-15T11:23:08.407Z,20.50
2022-10-15T11:25:45.681Z,21.10
2022-10-15T11:28:42.569Z,18.43
2022-10-15T11:31:17.570Z,20.53
2022-10-15T11:33:59.945Z,21.40
2022-10-15T11:36:58.722Z,19.47
2022-10-15T11:39:51.604Z,19.07
2022-10-15T11:42:27.710Z,19.80
2022-10-15T11:45:33.829Z,21.17
2022-10-15T11:48:07.629Z,18.30
2022-10-15T11:50:43.279Z,20.93
2022-10-15T11:53:30.566Z,20.53
2022-10-15T11:56:04.216Z,19.63
2022-10-15T11:58:39.456Z,19.43
2022-10-15T12:01:13.954Z,18.77
2022-10-15T12:03:52.867Z,19.00
2022-10-15T12:06:26.885Z,19.03
2022-10-15T12:08:56.612Z,18.30
2022-10-15T12:11:39.118Z,20.57
2022-10-15T12:14:18.528Z,19.13
2022-10-15T12:16:55.512Z,20.40
2022-10-15T12:19:28.414Z,18.60
2022-10-15T12:22:11.841Z,18.17
2022-10-15T12:24:58.156Z,19.50
2022-10-15T12:27:34.985Z,19.03
2022-10-15T12:30:23.173Z,21.00
2022-10-15T12:32:52.577Z,19.47
2022-10-15T12:35:31.794Z,18.00
2022-10-15T12:38:14.986Z,22.53
2022-10-15T12:40:44.001Z,20.87
2022-10-15T12:43:17.670Z,20.70
2022-10-15T12:45:53.886Z,20.10
2022-10-15T12:48:35.613Z,20.60
2022-10-15T12:51:41.012Z,20.33
2022-10-15T12:54:36.522Z,19.93
2022-10-15T12:57:21.266Z,21.40
2022-10-15T12:59:58.398Z,19.60
2022-10-15T13:02:37.983Z,22.30
2022-10-15T13:05:08.689Z,21.90
2022-10-15T13:07:42.057Z,21.47
2022-10-15T13:10:23.162Z,21.13
2022-10-15T13:12:55.268Z,22.03
2022-10-15T13:15:25.483Z,21.60
2022-10-15T13:17:56.289Z,23.23
2022-10-15T13:20:34.369Z,22.63
2022-10-15T13:23:30.336Z,23.73
2022-10-15T13:26:24.013Z,23.30
2022-10-15T13:28:55.828Z,23.50
2022-10-15T13:31:30.400Z,23.43
2022-10-15T13:34:02.949Z,23.83
2022-10-15T13:36:34.545Z,25.93
2022-10-15T13:39:07.249Z,24.10
2022-10-15T13:41:41.024Z,23.33
2022-10-15T13:44:23.594Z,25.80
2022-10-15T13:46:52.970Z,25.37
2022-10-15T13:49:23.197Z,24.07
2022-10-15T13:51:55.744Z,25.40
2022-10-15T13:54:26.187Z,26.47
2022-10-15T13:56:59.318Z,26.93
2022-10-15T13:59:30.073Z,24.67
2022-10-15T14:02:01.486Z,25.37
2022-10-15T14:04:31.765Z,27.67
2022-10-15T14:07:03.540Z,26.93
2022-10-15T14:09:35.300Z,25.70
2022-10-15T14:12:07.397Z,25.97
2022-10-15T14:14:40.165Z,26.37
2022-10-15T14:17:13.322Z,28.67
2022-10-15T14:19:42.518Z,28.17
2022-10-15T14:22:20.223Z,28.27
2022-10-15T14:24:52.709Z,28.30
2022-10-15T14:27:24.900Z,27.80
2022-10-15T14:29:55.489Z,28.30
2022-10-15T14:32:27.510Z,28.43
2022-10-15T14:34:57.140Z,28.03
2022-10-15T14:37:42.706Z,27.60
2022-10-15T14:40:18.191Z,29.73
2022-10-15T14:42:50.274Z,29.57
2022-10-15T14:45:25.821Z,28.30
2022-10-15T14:47:58.821Z,30.90
2022-10-15T14:50:31.009Z,27.60
2022-10-15T14:53:01.964Z,30.10
2022-10-15T14:55:33.694Z,29.60
2022-10-15T14:58:10.035Z,29.53
2022-10-15T15:00:43.934Z,30.43
2022-10-15T15:03:18.849Z,29.63
2022-10-15T15:05:49.407Z,30.67
2022-10-15T15:08:18.554Z,29.30
2022-10-15T15:13:26.603Z,32.13
2022-10-15T15:15:56.007Z,30.47
2022-10-15T15:18:25.311Z,31.20
2022-10-15T15:21:01.963Z,32.10
2022-10-15T15:23:31.688Z,31.90
2022-10-15T15:26:00.711Z,32.00
2022-10-15T15:28:31.414Z,31.00
2022-10-15T15:31:02.032Z,32.30
2022-10-15T15:33:30.930Z,32.53
2022-10-15T15:36:03.782Z,31.20
2022-10-15T15:38:33.255Z,31.30
2022-10-15T15:41:12.682Z,31.57
2022-10-15T15:43:43.400Z,32.20
2022-10-15T15:46:12.138Z,32.47
2022-10-15T15:48:41.048Z,32.93
2022-10-15T15:51:18.718Z,33.67
2022-10-15T15:53:47.547Z,33.37
2022-10-15T15:56:16.408Z,34.00
2022-10-15T15:58:46.901Z,32.70
2022-10-15T16:01:15.836Z,33.07
2022-10-15T16:03:44.767Z,34.83
2022-10-15T16:06:14.121Z,34.27
2022-10-15T16:08:43.171Z,36.20
2022-10-15T16:11:11.971Z,34.70
2022-10-15T16:13:41.768Z,35.10
2022-10-15T16:16:12.870Z,34.80
2022-10-15T16:18:41.881Z,34.90
2022-10-15T16:21:10.920Z,34.40
2022-10-15T16:23:39.773Z,35.97
2022-10-15T16:26:08.641Z,35.13
2022-10-15T16:28:37.466Z,35.97
2022-10-15T16:31:19.042Z,36.07
2022-10-15T16:33:48.500Z,34.57
2022-10-15T16:36:18.382Z,37.20
2022-10-15T16:38:48.351Z,34.63
2022-10-15T16:41:19.090Z,34.90
2022-10-15T16:43:49.024Z,32.30
2022-10-15T16:46:20.414Z,33.20
2022-10-15T16:48:54.685Z,30.27
2022-10-15T16:51:24.756Z,31.47
2022-10-15T16:53:54.923Z,30.53
2022-10-15T16:56:25.603Z,31.80
2022-10-15T16:58:54.876Z,30.27
2022-10-15T17:01:30.218Z,30.53
2022-10-15T17:04:00.536Z,30.97
2022-10-15T17:06:32.364Z,29.43
2022-10-15T17:09:07.835Z,29.53
2022-10-15T17:11:38.820Z,29.50
2022-10-15T17:14:11.240Z,29.20
2022-10-15T17:16:43.555Z,30.43
2022-10-15T17:19:17.053Z,30.07
2022-10-15T17:21:47.035Z,27.03
2022-10-15T17:24:25.379Z,29.40
2022-10-15T17:26:55.032Z,27.47
2022-10-15T17:29:27.799Z,26.23
2022-10-15T17:32:02.475Z,28.87
2022-10-15T17:34:31.458Z,26.10
2022-10-15T17:37:00.253Z,26.93
2022-10-15T17:39:29.318Z,26.83
2022-10-15T17:41:58.860Z,25.40
2022-10-15T17:44:27.894Z,25.70
2022-10-15T17:46:57.054Z,25.23
2022-10-15T17:49:27.385Z,24.77
2022-10-15T17:51:56.599Z,21.43
2022-10-15T17:54:25.829Z,23.77
2022-10-15T17:56:55.407Z,24.30
2022-10-15T17:59:25.520Z,22.57
2022-10-15T18:01:59.206Z,23.90
2022-10-15T18:04:31.291Z,23.60
2022-10-15T18:07:00.578Z,21.43
2022-10-15T18:09:30.249Z,20.03
2022-10-15T18:12:02.260Z,22.87
2022-10-15T18:14:32.441Z,22.80
2022-10-15T18:17:01.804Z,21.50
2022-10-15T18:19:35.556Z,22.27
2022-10-15T18:22:06.498Z,21.00
2022-10-15T18:24:35.752Z,20.73
2022-10-15T18:27:06.052Z,20.20
2022-10-15T18:29:36.819Z,20.57
2022-10-15T18:32:06.832Z,22.73
2022-10-15T18:34:37.415Z,21.93
2022-10-15T18:37:07.405Z,20.63
2022-10-15T18:39:38.068Z,21.80
2022-10-15T18:42:07.752Z,20.47
2022-10-15T18:44:39.232Z,21.50
2022-10-15T18:47:13.179Z,21.70
2022-10-15T18:49:45.251Z,22.30
2022-10-15T18:52:21.728Z,21.50
2022-10-15T18:55:03.419Z,24.57
2022-10-15T18:57:32.776Z,21.73
2022-10-15T19:00:02.639Z,21.77
2022-10-15T19:02:32.261Z,23.80
2022-10-15T19:05:03.742Z,22.83
2022-10-15T19:07:33.052Z,21.00
2022-10-15T19:10:04.279Z,24.47
2022-10-15T19:12:38.764Z,24.10
2022-10-15T19:15:10.051Z,24.13
2022-10-15T19:17:48.452Z,25.57
2022-10-15T19:20:29.590Z,24.77
2022-10-15T19:23:08.817Z,24.90
2022-10-15T19:26:03.005Z,25.97
2022-10-15T19:28:41.039Z,24.07
2022-10-15T19:31:25.152Z,23.97
2022-10-15T19:34:01.413Z,23.63
2022-10-15T19:37:04.514Z,24.33
2022-10-15T19:40:08.784Z,24.93
2022-10-15T19:42:52.656Z,25.20
2022-10-15T19:45:25.203Z,23.30
2022-10-15T19:48:01.444Z,23.17
2022-10-15T19:50:39.343Z,24.57
2022-10-15T19:53:52.357Z,26.20
2022-10-15T19:56:24.765Z,25.27
2022-10-15T19:58:57.410Z,24.60
2022-10-15T20:01:26.987Z,26.00
2022-10-15T20:03:58.185Z,25.10
2022-10-15T20:06:29.747Z,25.63
2022-10-15T20:09:01.241Z,25.30
2022-10-15T20:11:30.245Z,23.07
2022-10-15T20:14:00.470Z,25.07
2022-10-15T20:16:32.880Z,25.67
2022-10-15T20:19:03.426Z,25.83
2022-10-15T20:21:32.563Z,24.60
2022-10-15T20:24:04.917Z,26.37
2022-10-15T20:26:34.205Z,23.10
2022-10-15T20:29:03.455Z,25.90
2022-10-15T20:31:35.243Z,26.07
2022-10-15T20:34:05.076Z,26.10
2022-10-15T20:36:33.909Z,25.93
2022-10-15T20:39:04.435Z,25.67
2022-10-15T20:41:33.773Z,24.30
2022-10-15T20:44:02.587Z,23.33
2022-10-15T20:46:35.538Z,24.10
2022-10-15T20:49:09.341Z,24.80
2022-10-15T20:51:41.453Z,25.10
2022-10-15T20:54:14.556Z,24.70
2022-10-15T20:56:44.151Z,25.03
2022-10-15T20:59:13.562Z,24.50
2022-10-15T21:01:42.505Z,23.90
2022-10-15T21:04:11.519Z,23.87
2022-10-15T21:06:40.442Z,24.17
2022-10-15T21:09:10.752Z,24.23
2022-10-15T21:11:42.635Z,24.50
2022-10-15T21:14:11.383Z,25.10
2022-10-15T21:16:40.334Z,25.37
2022-10-15T21:19:09.161Z,26.97
2022-10-15T21:21:38.109Z,25.77
2022-10-15T21:24:07.240Z,23.90
2022-10-15T21:26:37.518Z,25.40
2022-10-15T21:29:06.343Z,25.90
2022-10-15T21:31:35.140Z,28.17
2022-10-15T21:34:03.855Z,28.27
2022-10-15T21:36:32.845Z,26.90
2022-10-15T21:39:04.028Z,26.97
2022-10-15T21:41:33.978Z,25.70
2022-10-15T21:44:05.526Z,25.93
2022-10-15T21:46:34.533Z,24.97
2022-10-15T21:49:04.472Z,22.70
2022-10-15T21:51:34.782Z,23.90
2022-10-15T21:54:05.283Z,22.80
2022-10-15T21:56:34.656Z,23.27
2022-10-15T21:59:04.969Z,21.50
2022-10-15T22:01:35.113Z,22.70
2022-10-15T22:04:06.006Z,19.50
2022-10-15T22:06:35.442Z,20.90
2022-10-15T22:09:05.907Z,22.00
2022-10-15T22:11:36.582Z,20.73
2022-10-15T22:14:09.213Z,20.90
2022-10-15T22:16:39.585Z,21.20
2022-10-15T22:19:09.987Z,19.50
2022-10-15T22:21:40.001Z,18.33
2022-10-15T22:24:12.513Z,20.73
2022-10-15T22:26:43.983Z,18.63
2022-10-15T22:29:19.816Z,17.67
2022-10-15T22:31:49.036Z,18.90
2022-10-15T22:34:18.069Z,17.90
2022-10-15T22:36:47.241Z,17.27
2022-10-15T22:39:18.874Z,17.07
2022-10-15T22:41:49.444Z,19.57
2022-10-15T22:44:21.152Z,18.13
2022-10-15T22:46:50.807Z,17.30
2022-10-15T22:49:21.423Z,17.20
2022-10-15T22:51:51.369Z,17.63
2022-10-15T22:54:21.991Z,17.30
2022-10-15T22:56:51.524Z,18.60
2022-10-15T22:59:22.153Z,17.20
2022-10-15T23:01:50.905Z,16.00
2022-10-15T23:04:19.651Z,16.90
2022-10-15T23:06:48.413Z,16.53
2022-10-15T23:09:18.308Z,17.73
2022-10-15T23:11:47.555Z,16.93
2022-10-15T23:14:17.792Z,16.43
2022-10-15T23:16:49.312Z,16.70
2022-10-15T23:19:20.095Z,15.87
2022-10-15T23:21:50.730Z,14.07
2022-10-15T23:24:21.979Z,16.33
2022-10-15T23:26:51.037Z,16.83
2022-10-15T23:29:21.934Z,15.37
2022-10-15T23:31:52.407Z,15.73
2022-10-15T23:34:22.538Z,15.70
2022-10-15T23:36:51.467Z,16.30
2022-10-15T23:39:22.489Z,14.93
2022-10-15T23:41:51.570Z,16.10
2022-10-15T23:44:20.470Z,15.97
2022-10-15T23:46:49.126Z,15.40
2022-10-15T23:49:19.357Z,14.33
2022-10-15T23:51:47.992Z,14.43
2022-10-15T23:54:19.122Z,15.40
2022-10-15T23:56:48.291Z,14.80
2022-10-15T23:59:18.457Z,15.53
